sensor_id;sensor_type;location;lat;lon;timestamp;temperature;humidity
36552;DHT22;22559;54.176;12.102;2023-07-31T00:00:41;15.10;99.90
36552;DHT22;22559;54.176;12.102;2023-07-31T00:03:06;15.10;99.90
36552;DHT22;22559;54.176;12.102;2023-07-31T00:05:32;15.10;99.90
36552;DHT22;22559;54.176;12.102;2023-07-31T00:07:57;15.10;99.90
36552;DHT22;22559;54.176;12.102;2023-07-31T00:10:23;15.00;99.90
36552;DHT22;22559;54.176;12.102;2023-07-31T00:12:49;15.00;99.90
36552;DHT22;22559;54.176;12.102;2023-07-31T00:15:15;15.00;99.90
36552;DHT22;22559;54.176;12.102;2023-07-31T00:17:41;15.00;99.90
36552;DHT22;22559;54.176;12.102;2023-07-31T00:20:06;14.90;99.90
36552;DHT22;22559;54.176;12.102;2023-07-31T00:22:32;14.90;99.90
36552;DHT22;22559;54.176;12.102;2023-07-31T00:24:58;14.90;99.90
36552;DHT22;22559;54.176;12.102;2023-07-31T00:27:25;14.90;99.90
36552;DHT22;22559;54.176;12.102;2023-07-31T00:29:50;14.80;99.90
36552;DHT22;22559;54.176;12.102;2023-07-31T00:32:16;14.80;99.90
36552;DHT22;22559;54.176;12.102;2023-07-31T00:34:42;14.80;99.90
36552;DHT22;22559;54.176;12.102;2023-07-31T00:37:07;14.80;99.90
36552;DHT22;22559;54.176;12.102;2023-07-31T00:39:34;14.80;99.90
36552;DHT22;22559;54.176;12.102;2023-07-31T00:42:00;14.90;99.90
36552;DHT22;22559;54.176;12.102;2023-07-31T00:44:26;14.90;99.90
36552;DHT22;22559;54.176;12.102;2023-07-31T00:46:52;14.90;99.90
36552;DHT22;22559;54.176;12.102;2023-07-31T00:49:19;15.00;99.90
36552;DHT22;22559;54.176;12.102;2023-07-31T00:51:45;15.00;99.90
36552;DHT22;22559;54.176;12.102;2023-07-31T00:54:11;15.00;99.90
36552;DHT22;22559;54.176;12.102;2023-07-31T00:56:37;15.00;99.90
36552;DHT22;22559;54.176;12.102;2023-07-31T00:59:03;15.00;99.90
36552;DHT22;22559;54.176;12.102;2023-07-31T01:01:28;15.00;99.90
36552;DHT22;22559;54.176;12.102;2023-07-31T01:03:54;15.00;99.90
36552;DHT22;22559;54.176;12.102;2023-07-31T01:06:35;15.00;99.90
36552;DHT22;22559;54.176;12.102;2023-07-31T01:09:05;15.00;99.90
36552;DHT22;22559;54.176;12.102;2023-07-31T01:11:38;14.90;99.90
36552;DHT22;22559;54.176;12.102;2023-07-31T01:14:07;14.90;99.90
36552;DHT22;22559;54.176;12.102;2023-07-31T01:16:33;14.90;99.90
36552;DHT22;22559;54.176;12.102;2023-07-31T01:18:59;14.80;99.90
36552;DHT22;22559;54.176;12.102;2023-07-31T01:21:48;14.80;99.90
36552;DHT22;22559;54.176;12.102;2023-07-31T01:27:19;14.70;99.90
36552;DHT22;22559;54.176;12.102;2023-07-31T01:29:56;14.70;99.90
36552;DHT22;22559;54.176;12.102;2023-07-31T01:32:25;14.70;99.90
36552;DHT22;22559;54.176;12.102;2023-07-31T01:34:52;14.70;99.90
36552;DHT22;22559;54.176;12.102;2023-07-31T01:37:19;14.60;99.90
36552;DHT22;22559;54.176;12.102;2023-07-31T01:39:44;14.60;99.90
36552;DHT22;22559;54.176;12.102;2023-07-31T01:42:10;14.60;99.90
36552;DHT22;22559;54.176;12.102;2023-07-31T01:44:35;14.60;99.90
36552;DHT22;22559;54.176;12.102;2023-07-31T01:47:01;14.60;99.90
36552;DHT22;22559;54.176;12.102;2023-07-31T01:49:26;14.60;99.90
36552;DHT22;22559;54.176;12.102;2023-07-31T01:51:52;14.60;99.90
36552;DHT22;22559;54.176;12.102;2023-07-31T01:54:18;14.60;99.90
36552;DHT22;22559;54.176;12.102;2023-07-31T01:56:43;14.60;99.90
36552;DHT22;22559;54.176;12.102;2023-07-31T01:59:09;14.60;99.90
36552;DHT22;22559;54.176;12.102;2023-07-31T02:01:35;14.60;99.90
36552;DHT22;22559;54.176;12.102;2023-07-31T02:04:00;14.60;99.90
36552;DHT22;22559;54.176;12.102;2023-07-31T02:06:26;14.60;99.90
36552;DHT22;22559;54.176;12.102;2023-07-31T02:08:52;14.60;99.90
36552;DHT22;22559;54.176;12.102;2023-07-31T02:11:18;14.60;99.90
36552;DHT22;22559;54.176;12.102;2023-07-31T02:13:43;14.60;99.90
36552;DHT22;22559;54.176;12.102;2023-07-31T02:16:09;14.60;99.90
36552;DHT22;22559;54.176;12.102;2023-07-31T02:18:34;14.60;99.90
36552;DHT22;22559;54.176;12.102;2023-07-31T02:21:00;14.60;99.90
36552;DHT22;22559;54.176;12.102;2023-07-31T02:23:26;14.60;99.90
36552;DHT22;22559;54.176;12.102;2023-07-31T02:25:51;14.70;99.90
36552;DHT22;22559;54.176;12.102;2023-07-31T02:28:17;14.70;99.90
36552;DHT22;22559;54.176;12.102;2023-07-31T02:30:46;14.70;99.90
36552;DHT22;22559;54.176;12.102;2023-07-31T02:33:12;14.70;99.90
36552;DHT22;22559;54.176;12.102;2023-07-31T02:35:37;14.70;99.90
36552;DHT22;22559;54.176;12.102;2023-07-31T02:38:03;14.70;99.90
36552;DHT22;22559;54.176;12.102;2023-07-31T02:40:28;14.70;99.90
36552;DHT22;22559;54.176;12.102;2023-07-31T02:42:54;14.70;99.90
36552;DHT22;22559;54.176;12.102;2023-07-31T02:45:20;14.70;99.90
36552;DHT22;22559;54.176;12.102;2023-07-31T02:47:45;14.50;99.90
36552;DHT22;22559;54.176;12.102;2023-07-31T02:50:11;14.40;99.90
36552;DHT22;22559;54.176;12.102;2023-07-31T02:52:36;14.40;99.90
36552;DHT22;22559;54.176;12.102;2023-07-31T02:55:02;14.30;99.90
36552;DHT22;22559;54.176;12.102;2023-07-31T02:57:28;14.20;99.90
36552;DHT22;22559;54.176;12.102;2023-07-31T02:59:53;14.20;99.90
36552;DHT22;22559;54.176;12.102;2023-07-31T03:02:19;14.20;99.90
36552;DHT22;22559;54.176;12.102;2023-07-31T03:04:45;14.20;99.90
36552;DHT22;22559;54.176;12.102;2023-07-31T03:07:10;14.20;99.90
36552;DHT22;22559;54.176;12.102;2023-07-31T03:09:36;14.10;99.90
36552;DHT22;22559;54.176;12.102;2023-07-31T03:12:01;14.20;99.90
36552;DHT22;22559;54.176;12.102;2023-07-31T03:14:27;14.20;99.90
36552;DHT22;22559;54.176;12.102;2023-07-31T03:16:53;14.20;99.90
36552;DHT22;22559;54.176;12.102;2023-07-31T03:19:19;14.10;99.90
36552;DHT22;22559;54.176;12.102;2023-07-31T03:21:44;14.20;99.90
36552;DHT22;22559;54.176;12.102;2023-07-31T03:24:10;14.20;99.90
36552;DHT22;22559;54.176;12.102;2023-07-31T03:26:37;14.20;99.90
36552;DHT22;22559;54.176;12.102;2023-07-31T03:29:03;14.10;99.90
36552;DHT22;22559;54.176;12.102;2023-07-31T03:31:29;14.20;99.90
36552;DHT22;22559;54.176;12.102;2023-07-31T03:33:55;14.20;99.90
36552;DHT22;22559;54.176;12.102;2023-07-31T03:36:20;14.10;99.90
36552;DHT22;22559;54.176;12.102;2023-07-31T03:38:46;14.10;99.90
36552;DHT22;22559;54.176;12.102;2023-07-31T03:41:12;14.20;99.90
36552;DHT22;22559;54.176;12.102;2023-07-31T03:43:37;14.20;99.90
36552;DHT22;22559;54.176;12.102;2023-07-31T03:46:03;14.20;99.90
36552;DHT22;22559;54.176;12.102;2023-07-31T03:48:29;14.20;99.90
36552;DHT22;22559;54.176;12.102;2023-07-31T03:50:55;14.20;99.90
36552;DHT22;22559;54.176;12.102;2023-07-31T03:53:20;14.20;99.90
36552;DHT22;22559;54.176;12.102;2023-07-31T03:55:46;14.20;99.90
36552;DHT22;22559;54.176;12.102;2023-07-31T03:58:12;14.20;99.90
36552;DHT22;22559;54.176;12.102;2023-07-31T04:00:37;14.30;99.90
36552;DHT22;22559;54.176;12.102;2023-07-31T04:03:03;14.30;99.90
36552;DHT22;22559;54.176;12.102;2023-07-31T04:05:32;14.30;99.90
36552;DHT22;22559;54.176;12.102;2023-07-31T04:07:58;14.30;99.90
36552;DHT22;22559;54.176;12.102;2023-07-31T04:10:24;14.30;99.90
36552;DHT22;22559;54.176;12.102;2023-07-31T04:12:49;14.30;99.90
36552;DHT22;22559;54.176;12.102;2023-07-31T04:15:15;14.40;99.90
36552;DHT22;22559;54.176;12.102;2023-07-31T04:17:40;14.40;99.90
36552;DHT22;22559;54.176;12.102;2023-07-31T04:20:06;14.40;99.90
36552;DHT22;22559;54.176;12.102;2023-07-31T04:22:32;14.50;99.90
36552;DHT22;22559;54.176;12.102;2023-07-31T04:24:58;14.60;99.90
36552;DHT22;22559;54.176;12.102;2023-07-31T04:27:24;14.50;99.90
36552;DHT22;22559;54.176;12.102;2023-07-31T04:29:50;14.50;99.90
36552;DHT22;22559;54.176;12.102;2023-07-31T04:32:16;14.60;99.90
36552;DHT22;22559;54.176;12.102;2023-07-31T04:34:42;14.60;99.90
36552;DHT22;22559;54.176;12.102;2023-07-31T04:37:08;14.60;99.90
36552;DHT22;22559;54.176;12.102;2023-07-31T04:39:33;14.60;99.90
36552;DHT22;22559;54.176;12.102;2023-07-31T04:41:59;14.60;99.90
36552;DHT22;22559;54.176;12.102;2023-07-31T04:44:25;14.60;99.90
36552;DHT22;22559;54.176;12.102;2023-07-31T04:46:50;14.60;99.90
36552;DHT22;22559;54.176;12.102;2023-07-31T04:49:16;14.70;99.90
36552;DHT22;22559;54.176;12.102;2023-07-31T04:51:41;14.70;99.90
36552;DHT22;22559;54.176;12.102;2023-07-31T04:54:07;14.70;99.90
36552;DHT22;22559;54.176;12.102;2023-07-31T04:56:33;14.80;99.90
36552;DHT22;22559;54.176;12.102;2023-07-31T04:58:58;14.80;99.90
36552;DHT22;22559;54.176;12.102;2023-07-31T05:01:24;14.80;99.90
36552;DHT22;22559;54.176;12.102;2023-07-31T05:03:50;14.90;99.90
36552;DHT22;22559;54.176;12.102;2023-07-31T05:06:15;15.00;99.90
36552;DHT22;22559;54.176;12.102;2023-07-31T05:08:41;15.00;99.90
36552;DHT22;22559;54.176;12.102;2023-07-31T05:11:07;15.00;99.90
36552;DHT22;22559;54.176;12.102;2023-07-31T05:13:32;15.10;99.90
36552;DHT22;22559;54.176;12.102;2023-07-31T05:15:58;15.10;99.90
36552;DHT22;22559;54.176;12.102;2023-07-31T05:18:23;15.10;99.90
36552;DHT22;22559;54.176;12.102;2023-07-31T05:20:49;15.10;99.90
36552;DHT22;22559;54.176;12.102;2023-07-31T05:23:15;15.10;99.90
36552;DHT22;22559;54.176;12.102;2023-07-31T05:25:40;15.20;99.90
36552;DHT22;22559;54.176;12.102;2023-07-31T05:28:06;15.20;99.90
36552;DHT22;22559;54.176;12.102;2023-07-31T05:30:31;15.20;99.90
36552;DHT22;22559;54.176;12.102;2023-07-31T05:32:57;15.20;99.90
36552;DHT22;22559;54.176;12.102;2023-07-31T05:35:23;15.20;99.90
36552;DHT22;22559;54.176;12.102;2023-07-31T05:37:48;15.20;99.90
36552;DHT22;22559;54.176;12.102;2023-07-31T05:40:14;15.30;99.90
36552;DHT22;22559;54.176;12.102;2023-07-31T05:42:40;15.30;99.90
36552;DHT22;22559;54.176;12.102;2023-07-31T05:45:09;15.40;99.90
36552;DHT22;22559;54.176;12.102;2023-07-31T05:47:35;15.40;99.90
36552;DHT22;22559;54.176;12.102;2023-07-31T05:50:00;15.40;99.90
36552;DHT22;22559;54.176;12.102;2023-07-31T05:52:26;15.40;99.90
36552;DHT22;22559;54.176;12.102;2023-07-31T05:54:54;15.50;99.90
36552;DHT22;22559;54.176;12.102;2023-07-31T05:57:20;15.50;99.90
36552;DHT22;22559;54.176;12.102;2023-07-31T05:59:45;15.60;99.90
36552;DHT22;22559;54.176;12.102;2023-07-31T06:02:11;15.70;99.90
36552;DHT22;22559;54.176;12.102;2023-07-31T06:04:37;15.70;99.90
36552;DHT22;22559;54.176;12.102;2023-07-31T06:07:03;15.70;99.90
36552;DHT22;22559;54.176;12.102;2023-07-31T06:09:29;15.70;99.90
36552;DHT22;22559;54.176;12.102;2023-07-31T06:11:54;15.70;99.90
36552;DHT22;22559;54.176;12.102;2023-07-31T06:14:20;15.70;99.90
36552;DHT22;22559;54.176;12.102;2023-07-31T06:16:46;15.80;99.90
36552;DHT22;22559;54.176;12.102;2023-07-31T06:19:11;15.80;99.90
36552;DHT22;22559;54.176;12.102;2023-07-31T06:21:37;15.90;99.90
36552;DHT22;22559;54.176;12.102;2023-07-31T06:24:04;16.00;99.90
36552;DHT22;22559;54.176;12.102;2023-07-31T06:26:30;16.10;99.90
36552;DHT22;22559;54.176;12.102;2023-07-31T06:28:56;16.10;99.90
36552;DHT22;22559;54.176;12.102;2023-07-31T06:31:21;16.20;99.90
36552;DHT22;22559;54.176;12.102;2023-07-31T06:33:49;16.20;99.90
36552;DHT22;22559;54.176;12.102;2023-07-31T06:36:15;16.20;99.90
36552;DHT22;22559;54.176;12.102;2023-07-31T06:38:40;16.20;99.90
36552;DHT22;22559;54.176;12.102;2023-07-31T06:41:06;16.20;99.90
36552;DHT22;22559;54.176;12.102;2023-07-31T06:43:32;16.30;99.90
36552;DHT22;22559;54.176;12.102;2023-07-31T06:45:57;16.30;99.90
36552;DHT22;22559;54.176;12.102;2023-07-31T06:48:23;16.30;99.90
36552;DHT22;22559;54.176;12.102;2023-07-31T06:50:48;16.40;99.90
36552;DHT22;22559;54.176;12.102;2023-07-31T06:53:14;16.30;99.90
36552;DHT22;22559;54.176;12.102;2023-07-31T06:55:40;16.40;99.90
36552;DHT22;22559;54.176;12.102;2023-07-31T06:58:05;16.40;99.90
36552;DHT22;22559;54.176;12.102;2023-07-31T07:00:31;16.50;99.90
36552;DHT22;22559;54.176;12.102;2023-07-31T07:02:57;16.50;99.90
36552;DHT22;22559;54.176;12.102;2023-07-31T07:05:23;16.50;99.90
36552;DHT22;22559;54.176;12.102;2023-07-31T07:07:50;16.60;99.90
36552;DHT22;22559;54.176;12.102;2023-07-31T07:10:17;16.70;99.90
36552;DHT22;22559;54.176;12.102;2023-07-31T07:12:42;16.80;99.90
36552;DHT22;22559;54.176;12.102;2023-07-31T07:15:08;16.90;99.90
36552;DHT22;22559;54.176;12.102;2023-07-31T07:17:34;16.90;99.90
36552;DHT22;22559;54.176;12.102;2023-07-31T07:20:00;17.00;99.90
36552;DHT22;22559;54.176;12.102;2023-07-31T07:22:26;17.10;99.90
36552;DHT22;22559;54.176;12.102;2023-07-31T07:24:53;17.10;99.90
36552;DHT22;22559;54.176;12.102;2023-07-31T07:27:18;17.10;99.90
36552;DHT22;22559;54.176;12.102;2023-07-31T07:29:46;17.10;99.90
36552;DHT22;22559;54.176;12.102;2023-07-31T07:32:11;17.10;99.90
36552;DHT22;22559;54.176;12.102;2023-07-31T07:34:37;17.20;99.90
36552;DHT22;22559;54.176;12.102;2023-07-31T07:37:03;17.30;99.90
36552;DHT22;22559;54.176;12.102;2023-07-31T07:39:29;17.40;99.90
36552;DHT22;22559;54.176;12.102;2023-07-31T07:41:54;17.60;99.90
36552;DHT22;22559;54.176;12.102;2023-07-31T07:44:20;17.70;99.90
36552;DHT22;22559;54.176;12.102;2023-07-31T07:46:45;17.80;99.90
36552;DHT22;22559;54.176;12.102;2023-07-31T07:49:11;17.80;99.90
36552;DHT22;22559;54.176;12.102;2023-07-31T07:51:37;17.70;99.90
36552;DHT22;22559;54.176;12.102;2023-07-31T07:54:02;17.70;99.90
36552;DHT22;22559;54.176;12.102;2023-07-31T07:56:28;17.70;99.90
36552;DHT22;22559;54.176;12.102;2023-07-31T07:58:54;17.70;99.90
36552;DHT22;22559;54.176;12.102;2023-07-31T08:01:20;17.70;99.90
36552;DHT22;22559;54.176;12.102;2023-07-31T08:03:46;17.60;99.90
36552;DHT22;22559;54.176;12.102;2023-07-31T08:06:12;17.60;99.90
36552;DHT22;22559;54.176;12.102;2023-07-31T08:08:38;17.60;99.90
36552;DHT22;22559;54.176;12.102;2023-07-31T08:11:04;17.50;99.90
36552;DHT22;22559;54.176;12.102;2023-07-31T08:13:30;17.50;99.90
36552;DHT22;22559;54.176;12.102;2023-07-31T08:15:55;17.40;99.90
36552;DHT22;22559;54.176;12.102;2023-07-31T08:18:21;17.50;99.90
36552;DHT22;22559;54.176;12.102;2023-07-31T08:20:47;17.60;99.90
36552;DHT22;22559;54.176;12.102;2023-07-31T08:23:13;17.60;99.90
36552;DHT22;22559;54.176;12.102;2023-07-31T08:25:38;17.70;99.90
36552;DHT22;22559;54.176;12.102;2023-07-31T08:28:05;17.70;99.90
36552;DHT22;22559;54.176;12.102;2023-07-31T08:30:31;17.70;99.90
36552;DHT22;22559;54.176;12.102;2023-07-31T08:32:57;17.80;99.90
36552;DHT22;22559;54.176;12.102;2023-07-31T08:35:24;18.00;99.90
36552;DHT22;22559;54.176;12.102;2023-07-31T08:37:50;18.10;99.90
36552;DHT22;22559;54.176;12.102;2023-07-31T08:40:15;18.20;99.90
36552;DHT22;22559;54.176;12.102;2023-07-31T08:42:45;18.30;99.90
36552;DHT22;22559;54.176;12.102;2023-07-31T08:45:14;18.40;99.90
36552;DHT22;22559;54.176;12.102;2023-07-31T08:47:44;18.40;99.90
36552;DHT22;22559;54.176;12.102;2023-07-31T08:50:12;18.40;99.90
36552;DHT22;22559;54.176;12.102;2023-07-31T08:52:38;18.50;99.90
36552;DHT22;22559;54.176;12.102;2023-07-31T08:55:04;18.40;99.90
36552;DHT22;22559;54.176;12.102;2023-07-31T08:57:30;18.30;99.90
36552;DHT22;22559;54.176;12.102;2023-07-31T08:59:57;18.30;99.90
36552;DHT22;22559;54.176;12.102;2023-07-31T09:02:23;18.30;99.90
36552;DHT22;22559;54.176;12.102;2023-07-31T09:04:55;18.40;99.90
36552;DHT22;22559;54.176;12.102;2023-07-31T09:07:21;18.40;99.90
36552;DHT22;22559;54.176;12.102;2023-07-31T09:09:47;18.50;99.90
36552;DHT22;22559;54.176;12.102;2023-07-31T09:12:12;18.40;99.90
36552;DHT22;22559;54.176;12.102;2023-07-31T09:14:39;18.40;99.90
36552;DHT22;22559;54.176;12.102;2023-07-31T09:17:05;18.40;99.90
36552;DHT22;22559;54.176;12.102;2023-07-31T09:19:35;18.40;99.90
36552;DHT22;22559;54.176;12.102;2023-07-31T09:22:07;18.30;99.90
36552;DHT22;22559;54.176;12.102;2023-07-31T09:24:34;18.30;99.90
36552;DHT22;22559;54.176;12.102;2023-07-31T09:27:01;18.30;99.90
36552;DHT22;22559;54.176;12.102;2023-07-31T09:29:28;18.40;99.90
36552;DHT22;22559;54.176;12.102;2023-07-31T09:31:55;18.50;99.90
36552;DHT22;22559;54.176;12.102;2023-07-31T09:34:29;18.60;99.90
36552;DHT22;22559;54.176;12.102;2023-07-31T09:36:55;18.70;99.90
36552;DHT22;22559;54.176;12.102;2023-07-31T09:39:20;18.90;99.90
36552;DHT22;22559;54.176;12.102;2023-07-31T09:41:55;19.00;99.90
36552;DHT22;22559;54.176;12.102;2023-07-31T09:44:21;19.10;99.90
36552;DHT22;22559;54.176;12.102;2023-07-31T09:46:47;19.10;99.90
36552;DHT22;22559;54.176;12.102;2023-07-31T09:49:14;19.10;99.90
36552;DHT22;22559;54.176;12.102;2023-07-31T09:51:41;19.10;99.90
36552;DHT22;22559;54.176;12.102;2023-07-31T09:54:11;19.10;99.90
36552;DHT22;22559;54.176;12.102;2023-07-31T09:56:47;19.10;99.90
36552;DHT22;22559;54.176;12.102;2023-07-31T09:59:18;19.00;99.90
36552;DHT22;22559;54.176;12.102;2023-07-31T10:01:45;18.90;99.90
36552;DHT22;22559;54.176;12.102;2023-07-31T10:04:12;18.90;99.90
36552;DHT22;22559;54.176;12.102;2023-07-31T10:06:38;18.90;99.90
36552;DHT22;22559;54.176;12.102;2023-07-31T10:09:07;18.70;99.90
36552;DHT22;22559;54.176;12.102;2023-07-31T10:11:47;18.70;99.90
36552;DHT22;22559;54.176;12.102;2023-07-31T10:14:18;18.60;99.90
36552;DHT22;22559;54.176;12.102;2023-07-31T10:16:45;18.60;99.90
36552;DHT22;22559;54.176;12.102;2023-07-31T10:19:11;18.50;99.90
36552;DHT22;22559;54.176;12.102;2023-07-31T10:21:37;18.60;99.90
36552;DHT22;22559;54.176;12.102;2023-07-31T10:24:04;18.50;99.90
36552;DHT22;22559;54.176;12.102;2023-07-31T10:26:31;18.50;99.90
36552;DHT22;22559;54.176;12.102;2023-07-31T10:28:59;18.50;99.90
36552;DHT22;22559;54.176;12.102;2023-07-31T10:31:27;18.60;99.90
36552;DHT22;22559;54.176;12.102;2023-07-31T10:33:55;18.70;99.90
36552;DHT22;22559;54.176;12.102;2023-07-31T10:36:21;18.70;99.90
36552;DHT22;22559;54.176;12.102;2023-07-31T10:38:50;18.80;99.90
36552;DHT22;22559;54.176;12.102;2023-07-31T10:41:18;18.80;99.90
36552;DHT22;22559;54.176;12.102;2023-07-31T10:43:46;18.70;99.90
36552;DHT22;22559;54.176;12.102;2023-07-31T10:46:13;18.50;99.90
36552;DHT22;22559;54.176;12.102;2023-07-31T10:48:40;18.50;99.90
36552;DHT22;22559;54.176;12.102;2023-07-31T10:51:11;18.50;99.90
36552;DHT22;22559;54.176;12.102;2023-07-31T10:53:38;18.50;99.90
36552;DHT22;22559;54.176;12.102;2023-07-31T10:56:08;18.60;99.90
36552;DHT22;22559;54.176;12.102;2023-07-31T10:58:36;18.50;99.90
36552;DHT22;22559;54.176;12.102;2023-07-31T11:01:04;18.40;99.90
36552;DHT22;22559;54.176;12.102;2023-07-31T11:03:47;18.40;99.90
36552;DHT22;22559;54.176;12.102;2023-07-31T11:06:15;18.20;99.90
36552;DHT22;22559;54.176;12.102;2023-07-31T11:08:46;18.10;99.90
36552;DHT22;22559;54.176;12.102;2023-07-31T11:11:17;18.10;99.90
36552;DHT22;22559;54.176;12.102;2023-07-31T11:16:16;18.00;99.90
36552;DHT22;22559;54.176;12.102;2023-07-31T11:18:43;18.00;99.90
36552;DHT22;22559;54.176;12.102;2023-07-31T11:21:13;17.90;99.90
36552;DHT22;22559;54.176;12.102;2023-07-31T11:23:39;17.80;99.90
36552;DHT22;22559;54.176;12.102;2023-07-31T11:26:06;17.90;99.90
36552;DHT22;22559;54.176;12.102;2023-07-31T11:28:35;17.80;99.90
36552;DHT22;22559;54.176;12.102;2023-07-31T11:31:01;17.80;99.90
36552;DHT22;22559;54.176;12.102;2023-07-31T11:33:27;17.70;99.90
36552;DHT22;22559;54.176;12.102;2023-07-31T11:35:53;17.70;99.90
36552;DHT22;22559;54.176;12.102;2023-07-31T11:38:30;17.70;99.90
36552;DHT22;22559;54.176;12.102;2023-07-31T11:41:04;17.70;99.90
36552;DHT22;22559;54.176;12.102;2023-07-31T11:43:31;17.60;99.90
36552;DHT22;22559;54.176;12.102;2023-07-31T11:45:58;17.40;99.90
36552;DHT22;22559;54.176;12.102;2023-07-31T11:48:32;17.30;99.90
36552;DHT22;22559;54.176;12.102;2023-07-31T11:51:06;17.20;99.90
36552;DHT22;22559;54.176;12.102;2023-07-31T11:53:54;17.10;99.90
36552;DHT22;22559;54.176;12.102;2023-07-31T11:56:21;17.00;99.90
36552;DHT22;22559;54.176;12.102;2023-07-31T11:58:55;17.00;99.90
36552;DHT22;22559;54.176;12.102;2023-07-31T12:01:22;17.00;99.90
36552;DHT22;22559;54.176;12.102;2023-07-31T12:03:52;17.00;99.90
36552;DHT22;22559;54.176;12.102;2023-07-31T12:06:18;17.00;99.90
36552;DHT22;22559;54.176;12.102;2023-07-31T12:08:46;17.00;99.90
36552;DHT22;22559;54.176;12.102;2023-07-31T12:11:12;16.80;99.90
36552;DHT22;22559;54.176;12.102;2023-07-31T12:13:39;16.60;99.90
36552;DHT22;22559;54.176;12.102;2023-07-31T12:16:04;16.50;99.90
36552;DHT22;22559;54.176;12.102;2023-07-31T12:18:34;16.50;99.90
36552;DHT22;22559;54.176;12.102;2023-07-31T12:21:03;16.70;99.90
36552;DHT22;22559;54.176;12.102;2023-07-31T12:23:33;16.70;99.90
36552;DHT22;22559;54.176;12.102;2023-07-31T12:26:10;16.80;99.90
36552;DHT22;22559;54.176;12.102;2023-07-31T12:31:04;16.70;99.90
36552;DHT22;22559;54.176;12.102;2023-07-31T12:33:37;16.70;99.90
36552;DHT22;22559;54.176;12.102;2023-07-31T12:36:07;16.70;99.90
36552;DHT22;22559;54.176;12.102;2023-07-31T12:38:33;16.60;99.90
36552;DHT22;22559;54.176;12.102;2023-07-31T12:40:59;16.60;99.90
36552;DHT22;22559;54.176;12.102;2023-07-31T12:43:24;16.60;99.90
36552;DHT22;22559;54.176;12.102;2023-07-31T12:45:50;16.60;99.90
36552;DHT22;22559;54.176;12.102;2023-07-31T12:48:16;16.60;99.90
36552;DHT22;22559;54.176;12.102;2023-07-31T12:50:42;16.50;99.90
36552;DHT22;22559;54.176;12.102;2023-07-31T12:53:07;16.50;99.90
36552;DHT22;22559;54.176;12.102;2023-07-31T12:55:33;16.50;99.90
36552;DHT22;22559;54.176;12.102;2023-07-31T12:58:02;16.60;99.90
36552;DHT22;22559;54.176;12.102;2023-07-31T13:00:28;16.80;99.90
36552;DHT22;22559;54.176;12.102;2023-07-31T13:02:54;16.80;99.90
36552;DHT22;22559;54.176;12.102;2023-07-31T13:05:20;16.80;99.90
36552;DHT22;22559;54.176;12.102;2023-07-31T13:07:47;16.70;99.90
36552;DHT22;22559;54.176;12.102;2023-07-31T13:10:12;16.70;99.90
36552;DHT22;22559;54.176;12.102;2023-07-31T13:12:38;16.70;99.90
36552;DHT22;22559;54.176;12.102;2023-07-31T13:15:05;16.70;99.90
36552;DHT22;22559;54.176;12.102;2023-07-31T13:17:30;16.70;99.90
36552;DHT22;22559;54.176;12.102;2023-07-31T13:19:56;16.80;99.90
36552;DHT22;22559;54.176;12.102;2023-07-31T13:22:22;16.90;99.90
36552;DHT22;22559;54.176;12.102;2023-07-31T13:24:48;17.00;99.90
36552;DHT22;22559;54.176;12.102;2023-07-31T13:27:13;17.10;99.90
36552;DHT22;22559;54.176;12.102;2023-07-31T13:29:43;17.10;99.90
36552;DHT22;22559;54.176;12.102;2023-07-31T13:32:09;17.10;99.90
36552;DHT22;22559;54.176;12.102;2023-07-31T13:34:35;17.10;99.90
36552;DHT22;22559;54.176;12.102;2023-07-31T13:37:00;17.10;99.90
36552;DHT22;22559;54.176;12.102;2023-07-31T13:39:26;17.10;99.90
36552;DHT22;22559;54.176;12.102;2023-07-31T13:41:51;17.10;99.90
36552;DHT22;22559;54.176;12.102;2023-07-31T13:44:17;17.10;99.90
36552;DHT22;22559;54.176;12.102;2023-07-31T13:46:42;17.20;99.90
36552;DHT22;22559;54.176;12.102;2023-07-31T13:49:11;17.30;99.90
36552;DHT22;22559;54.176;12.102;2023-07-31T13:51:36;17.30;99.90
36552;DHT22;22559;54.176;12.102;2023-07-31T13:54:04;17.30;99.90
36552;DHT22;22559;54.176;12.102;2023-07-31T13:56:31;17.30;99.90
36552;DHT22;22559;54.176;12.102;2023-07-31T13:58:57;17.30;99.90
36552;DHT22;22559;54.176;12.102;2023-07-31T14:01:23;17.30;99.90
36552;DHT22;22559;54.176;12.102;2023-07-31T14:03:49;17.30;99.90
36552;DHT22;22559;54.176;12.102;2023-07-31T14:06:15;17.40;99.90
36552;DHT22;22559;54.176;12.102;2023-07-31T14:08:40;17.40;99.90
36552;DHT22;22559;54.176;12.102;2023-07-31T14:11:06;17.40;99.90
36552;DHT22;22559;54.176;12.102;2023-07-31T14:13:32;17.40;99.90
36552;DHT22;22559;54.176;12.102;2023-07-31T14:15:57;17.20;99.90
36552;DHT22;22559;54.176;12.102;2023-07-31T14:18:23;17.10;99.90
36552;DHT22;22559;54.176;12.102;2023-07-31T14:20:48;17.10;99.90
36552;DHT22;22559;54.176;12.102;2023-07-31T14:23:14;17.00;99.90
36552;DHT22;22559;54.176;12.102;2023-07-31T14:25:41;17.10;99.90
36552;DHT22;22559;54.176;12.102;2023-07-31T14:28:06;17.10;99.90
36552;DHT22;22559;54.176;12.102;2023-07-31T14:30:32;17.10;99.90
36552;DHT22;22559;54.176;12.102;2023-07-31T14:32:57;17.10;99.90
36552;DHT22;22559;54.176;12.102;2023-07-31T14:35:23;17.20;99.90
36552;DHT22;22559;54.176;12.102;2023-07-31T14:37:49;17.20;99.90
36552;DHT22;22559;54.176;12.102;2023-07-31T14:40:14;17.30;99.90
36552;DHT22;22559;54.176;12.102;2023-07-31T14:42:40;17.30;99.90
36552;DHT22;22559;54.176;12.102;2023-07-31T14:45:07;17.30;99.90
36552;DHT22;22559;54.176;12.102;2023-07-31T14:47:33;17.30;99.90
36552;DHT22;22559;54.176;12.102;2023-07-31T14:49:59;17.20;99.90
36552;DHT22;22559;54.176;12.102;2023-07-31T14:52:25;17.30;99.90
36552;DHT22;22559;54.176;12.102;2023-07-31T14:54:51;17.30;99.90
36552;DHT22;22559;54.176;12.102;2023-07-31T14:57:16;17.40;99.90
36552;DHT22;22559;54.176;12.102;2023-07-31T14:59:42;17.40;99.90
36552;DHT22;22559;54.176;12.102;2023-07-31T15:02:11;17.40;99.90
36552;DHT22;22559;54.176;12.102;2023-07-31T15:04:36;17.40;99.90
36552;DHT22;22559;54.176;12.102;2023-07-31T15:07:03;17.30;99.90
36552;DHT22;22559;54.176;12.102;2023-07-31T15:09:28;17.40;99.90
36552;DHT22;22559;54.176;12.102;2023-07-31T15:11:55;17.30;99.90
36552;DHT22;22559;54.176;12.102;2023-07-31T15:14:21;17.40;99.90
36552;DHT22;22559;54.176;12.102;2023-07-31T15:16:46;17.40;99.90
36552;DHT22;22559;54.176;12.102;2023-07-31T15:19:12;17.40;99.90